Time;durP1;ratioP1;P1;durP2;ratioP2;P2;SDS_P1;SDS_P2;PMS_P1;PMS_P2;Temp;Humidity;BMP_temperature;BMP_pressure;BME280_temperature;BME280_humidity;BME280_pressure;Samples;Min_cycle;Max_cycle;Signal;HPM_P1;HPM_P2
2024/01/24 00:01:56;;;;;;;;;;;8.80;99.90;;;;;;5047874;28;19923;-57
2024/01/24 00:04:22;;;;;;;;;;;8.70;99.90;;;;;;5041065;28;20306;-59
2024/01/24 00:06:48;;;;;;;;;;;8.70;99.90;;;;;;5054243;28;19921;-56
2024/01/24 00:09:13;;;;;;;;;;;8.80;99.90;;;;;;5056473;28;19920;-53
2024/01/24 00:11:39;;;;;;;;;;;8.80;99.90;;;;;;5038509;28;20384;-56
2024/01/24 00:14:04;;;;;;;;;;;8.90;99.90;;;;;;5065575;28;19916;-59
2024/01/24 00:16:30;;;;;;;;;;;8.90;99.90;;;;;;5058372;28;20371;-58
2024/01/24 00:18:55;;;;;;;;;;;9.00;99.90;;;;;;5054796;28;19913;-58
2024/01/24 00:21:21;;;;;;;;;;;9.00;99.90;;;;;;5062217;28;20389;-58
2024/01/24 00:23:46;;;;;;;;;;;9.00;99.90;;;;;;5031472;28;19920;-56
2024/01/24 00:26:12;;;;;;;;;;;9.00;99.90;;;;;;5066704;28;19917;-56
2024/01/24 00:28:37;;;;;;;;;;;9.00;99.90;;;;;;5042725;28;19916;-55
2024/01/24 00:31:03;;;;;;;;;;;9.10;99.90;;;;;;5052707;28;19978;-58
2024/01/24 00:33:31;;;;;;;;;;;9.10;99.90;;;;;;5062669;28;19936;-57
2024/01/24 00:35:57;;;;;;;;;;;9.10;99.90;;;;;;5053511;28;19917;-57
2024/01/24 00:38:22;;;;;;;;;;;9.10;99.90;;;;;;5054288;28;19918;-58
2024/01/24 00:40:48;;;;;;;;;;;9.20;99.90;;;;;;5070820;28;20034;-57
2024/01/24 00:43:13;;;;;;;;;;;9.20;99.90;;;;;;5070448;28;19920;-58
2024/01/24 00:45:39;;;;;;;;;;;9.20;99.90;;;;;;5046739;28;20266;-58
2024/01/24 00:48:06;;;;;;;;;;;9.30;99.90;;;;;;5050674;28;19935;-57
2024/01/24 00:50:32;;;;;;;;;;;9.30;99.90;;;;;;5056431;28;19921;-58
2024/01/24 00:53:00;;;;;;;;;;;9.30;99.90;;;;;;5070651;28;20368;-59
2024/01/24 00:55:27;;;;;;;;;;;9.30;99.90;;;;;;5051758;28;19943;-59
2024/01/24 00:57:52;;;;;;;;;;;9.30;99.90;;;;;;5031361;28;20273;-56
2024/01/24 01:00:17;;;;;;;;;;;9.40;99.90;;;;;;5066453;28;19966;-58
2024/01/24 01:02:43;;;;;;;;;;;9.40;99.90;;;;;;5051442;28;20012;-58
2024/01/24 01:05:08;;;;;;;;;;;9.40;99.90;;;;;;5054529;28;20668;-58
2024/01/24 01:07:34;;;;;;;;;;;9.40;99.90;;;;;;5038707;28;19909;-59
2024/01/24 01:09:59;;;;;;;;;;;9.40;99.90;;;;;;5046643;28;20292;-56
2024/01/24 01:12:25;;;;;;;;;;;9.50;99.90;;;;;;5051446;28;19912;-59
2024/01/24 01:14:50;;;;;;;;;;;9.60;99.90;;;;;;5050030;28;19993;-56
2024/01/24 01:17:16;;;;;;;;;;;9.50;99.90;;;;;;5069640;28;20487;-56
2024/01/24 01:19:41;;;;;;;;;;;9.50;99.90;;;;;;5063091;28;19920;-55
2024/01/24 01:22:07;;;;;;;;;;;9.50;99.90;;;;;;5052429;28;19975;-57
2024/01/24 01:24:32;;;;;;;;;;;9.60;99.90;;;;;;5041795;28;19920;-57
2024/01/24 01:26:58;;;;;;;;;;;9.60;99.90;;;;;;5065317;28;19913;-58
2024/01/24 01:29:23;;;;;;;;;;;9.60;99.90;;;;;;5044280;28;19943;-59
2024/01/24 01:31:49;;;;;;;;;;;9.60;99.90;;;;;;5063424;28;19916;-58
2024/01/24 01:34:14;;;;;;;;;;;9.60;99.90;;;;;;5053738;28;19923;-57
2024/01/24 01:36:40;;;;;;;;;;;9.70;99.90;;;;;;5039143;28;20373;-57
2024/01/24 01:39:05;;;;;;;;;;;9.70;99.90;;;;;;5038910;28;19917;-57
2024/01/24 01:41:31;;;;;;;;;;;9.70;99.90;;;;;;5064234;28;19912;-55
2024/01/24 01:43:56;;;;;;;;;;;9.80;99.90;;;;;;5036575;28;19967;-57
2024/01/24 01:46:22;;;;;;;;;;;9.80;99.90;;;;;;5052898;28;19916;-55
2024/01/24 01:48:49;;;;;;;;;;;9.80;99.90;;;;;;5061740;28;19921;-54
2024/01/24 01:51:18;;;;;;;;;;;9.90;99.90;;;;;;5069475;28;19913;-56
2024/01/24 01:53:44;;;;;;;;;;;9.90;99.90;;;;;;5043561;28;19958;-56
2024/01/24 01:56:10;;;;;;;;;;;9.90;99.90;;;;;;5060746;28;19913;-54
2024/01/24 01:58:37;;;;;;;;;;;10.00;99.90;;;;;;5046809;28;20000;-58
2024/01/24 02:01:03;;;;;;;;;;;10.00;99.90;;;;;;5035165;28;20262;-54
2024/01/24 02:03:29;;;;;;;;;;;10.00;99.90;;;;;;5064235;28;19974;-54
2024/01/24 02:05:54;;;;;;;;;;;10.00;99.90;;;;;;5032110;28;19925;-57
2024/01/24 02:08:20;;;;;;;;;;;10.10;99.90;;;;;;5033762;28;19913;-58
2024/01/24 02:10:45;;;;;;;;;;;10.10;99.90;;;;;;5057239;28;19957;-58
2024/01/24 02:13:11;;;;;;;;;;;10.10;99.90;;;;;;5061112;28;20380;-54
2024/01/24 02:15:37;;;;;;;;;;;10.10;99.90;;;;;;5060592;28;19920;-55
2024/01/24 02:18:03;;;;;;;;;;;10.20;99.90;;;;;;5041416;28;19921;-53
2024/01/24 02:20:29;;;;;;;;;;;10.20;99.90;;;;;;5051354;28;20384;-57
2024/01/24 02:22:55;;;;;;;;;;;10.30;99.90;;;;;;5033528;28;19927;-54
2024/01/24 02:25:20;;;;;;;;;;;10.30;99.90;;;;;;5062125;28;20385;-54
2024/01/24 02:27:46;;;;;;;;;;;10.30;99.90;;;;;;5065553;28;19913;-56
2024/01/24 02:30:11;;;;;;;;;;;10.40;99.90;;;;;;5056240;28;19949;-55
2024/01/24 02:32:38;;;;;;;;;;;10.40;99.90;;;;;;5050349;28;20428;-55
2024/01/24 02:35:04;;;;;;;;;;;10.40;99.90;;;;;;5066999;28;19986;-56
2024/01/24 02:37:30;;;;;;;;;;;10.40;99.90;;;;;;5052177;28;19912;-54
2024/01/24 02:39:55;;;;;;;;;;;10.50;99.90;;;;;;5031466;28;19924;-54
2024/01/24 02:42:21;;;;;;;;;;;10.50;99.90;;;;;;5052991;28;20357;-55
2024/01/24 02:44:46;;;;;;;;;;;10.50;99.90;;;;;;5068886;28;19959;-56
2024/01/24 02:47:12;;;;;;;;;;;10.50;99.90;;;;;;5029508;28;19912;-54
2024/01/24 02:49:38;;;;;;;;;;;10.50;99.90;;;;;;5043500;28;19916;-57
2024/01/24 02:52:04;;;;;;;;;;;10.50;99.90;;;;;;5061290;28;20408;-55
2024/01/24 02:54:29;;;;;;;;;;;10.60;99.90;;;;;;5062210;28;20013;-57
2024/01/24 02:56:54;;;;;;;;;;;10.60;99.90;;;;;;5052312;28;20373;-55
2024/01/24 02:59:20;;;;;;;;;;;10.70;99.90;;;;;;5052768;28;20050;-57
2024/01/24 03:01:45;;;;;;;;;;;10.70;99.90;;;;;;5061046;28;19925;-57
2024/01/24 03:04:11;;;;;;;;;;;10.70;99.90;;;;;;5058039;28;20019;-55
2024/01/24 03:06:37;;;;;;;;;;;10.70;99.90;;;;;;5020209;28;20014;-56
2024/01/24 03:09:03;;;;;;;;;;;10.70;99.90;;;;;;5068865;28;19913;-56
2024/01/24 03:11:28;;;;;;;;;;;10.70;99.90;;;;;;5047297;28;19910;-58
2024/01/24 03:13:54;;;;;;;;;;;10.80;99.90;;;;;;5058189;28;19936;-56
2024/01/24 03:16:19;;;;;;;;;;;10.80;99.90;;;;;;5067926;28;19973;-57
2024/01/24 03:18:45;;;;;;;;;;;10.70;99.90;;;;;;5053890;28;19928;-59
2024/01/24 03:21:13;;;;;;;;;;;10.70;99.90;;;;;;5071328;28;20261;-55
2024/01/24 03:23:39;;;;;;;;;;;10.60;99.90;;;;;;5065730;28;19917;-56
2024/01/24 03:26:06;;;;;;;;;;;10.60;99.90;;;;;;5061686;28;19993;-55
2024/01/24 03:28:32;;;;;;;;;;;10.50;99.90;;;;;;5061352;28;20403;-57
2024/01/24 03:30:58;;;;;;;;;;;10.50;99.90;;;;;;5058729;28;19955;-57
2024/01/24 03:33:24;;;;;;;;;;;10.50;99.90;;;;;;5072198;28;19940;-55
2024/01/24 03:35:49;;;;;;;;;;;10.40;99.90;;;;;;5055352;28;20365;-55
2024/01/24 03:38:15;;;;;;;;;;;10.50;99.90;;;;;;5051686;28;20423;-54
2024/01/24 03:40:40;;;;;;;;;;;10.50;99.90;;;;;;5060207;28;19913;-53
2024/01/24 03:43:06;;;;;;;;;;;10.40;99.90;;;;;;5041538;28;19920;-55
2024/01/24 03:45:31;;;;;;;;;;;10.50;99.90;;;;;;5042661;28;19924;-54
2024/01/24 03:47:57;;;;;;;;;;;10.50;99.90;;;;;;5061924;28;20276;-56
2024/01/24 03:50:22;;;;;;;;;;;10.50;99.90;;;;;;5048320;28;19956;-57
2024/01/24 03:52:47;;;;;;;;;;;10.60;99.90;;;;;;5047513;28;20376;-57
2024/01/24 03:55:13;;;;;;;;;;;10.70;99.90;;;;;;5052911;28;19943;-56
2024/01/24 03:57:39;;;;;;;;;;;10.60;99.90;;;;;;5042153;28;19971;-56
2024/01/24 04:00:06;;;;;;;;;;;10.60;99.90;;;;;;5039860;28;20469;-56
2024/01/24 04:02:31;;;;;;;;;;;10.70;99.90;;;;;;5058968;28;19920;-57
2024/01/24 04:04:57;;;;;;;;;;;10.80;99.90;;;;;;5046566;28;19925;-53
2024/01/24 04:07:22;;;;;;;;;;;10.80;99.90;;;;;;5070831;28;20323;-57
2024/01/24 04:09:48;;;;;;;;;;;10.70;99.90;;;;;;5063602;28;19921;-54
2024/01/24 04:12:13;;;;;;;;;;;10.70;99.90;;;;;;5051648;28;19917;-54
2024/01/24 04:14:38;;;;;;;;;;;10.70;99.90;;;;;;5049821;28;19917;-54
2024/01/24 04:17:04;;;;;;;;;;;10.60;99.90;;;;;;5067029;28;19958;-57
2024/01/24 04:19:29;;;;;;;;;;;10.60;99.90;;;;;;5036565;28;19917;-57
2024/01/24 04:21:55;;;;;;;;;;;10.70;99.90;;;;;;5042798;28;20004;-54
2024/01/24 04:24:20;;;;;;;;;;;10.70;99.90;;;;;;5046800;28;19917;-57
2024/01/24 04:26:46;;;;;;;;;;;10.70;99.90;;;;;;5045027;28;19925;-54
2024/01/24 04:29:11;;;;;;;;;;;10.80;99.90;;;;;;5048161;28;20372;-54
2024/01/24 04:31:37;;;;;;;;;;;10.80;99.90;;;;;;5039367;28;19944;-56
2024/01/24 04:34:02;;;;;;;;;;;10.80;99.90;;;;;;5058641;28;19913;-58
2024/01/24 04:36:28;;;;;;;;;;;10.90;99.90;;;;;;5053645;28;20293;-55
2024/01/24 04:38:53;;;;;;;;;;;10.90;99.90;;;;;;5053975;28;19916;-55
2024/01/24 04:41:19;;;;;;;;;;;10.90;99.90;;;;;;5062824;28;19917;-54
2024/01/24 04:43:44;;;;;;;;;;;10.90;99.90;;;;;;5056520;28;19925;-55
2024/01/24 04:46:14;;;;;;;;;;;11.00;99.90;;;;;;5025574;28;19974;-55
2024/01/24 04:48:40;;;;;;;;;;;11.10;99.90;;;;;;5053576;28;19919;-57
2024/01/24 04:51:05;;;;;;;;;;;11.30;99.90;;;;;;5062163;28;20250;-57
2024/01/24 04:53:31;;;;;;;;;;;11.40;99.90;;;;;;5054126;28;19912;-55
2024/01/24 04:55:56;;;;;;;;;;;11.40;99.90;;;;;;5051902;28;19919;-56
2024/01/24 04:58:22;;;;;;;;;;;11.50;99.90;;;;;;5070353;28;19920;-56
2024/01/24 05:00:47;;;;;;;;;;;11.50;99.90;;;;;;5070763;28;19923;-58
2024/01/24 05:03:14;;;;;;;;;;;11.50;99.90;;;;;;5070298;28;19926;-53
2024/01/24 05:05:40;;;;;;;;;;;11.40;99.90;;;;;;5063172;28;19917;-57
2024/01/24 05:08:06;;;;;;;;;;;11.40;99.90;;;;;;5031825;28;20385;-55
2024/01/24 05:10:31;;;;;;;;;;;11.40;99.90;;;;;;5038521;28;19913;-55
2024/01/24 05:12:57;;;;;;;;;;;11.40;99.90;;;;;;5047421;28;19912;-54
2024/01/24 05:15:22;;;;;;;;;;;11.40;99.90;;;;;;5045618;28;19913;-55
2024/01/24 05:17:48;;;;;;;;;;;11.50;99.90;;;;;;5070113;28;19922;-55
2024/01/24 05:20:13;;;;;;;;;;;11.50;99.90;;;;;;5058770;28;19917;-58
2024/01/24 05:22:39;;;;;;;;;;;11.60;99.90;;;;;;5050128;28;20300;-58
2024/01/24 05:25:05;;;;;;;;;;;11.60;99.90;;;;;;5033376;28;20292;-55
2024/01/24 05:27:30;;;;;;;;;;;11.60;99.90;;;;;;5059783;28;20289;-57
2024/01/24 05:29:56;;;;;;;;;;;11.50;99.90;;;;;;5038388;28;20330;-55
2024/01/24 05:32:21;;;;;;;;;;;11.50;99.90;;;;;;5046758;28;19925;-56
2024/01/24 05:34:47;;;;;;;;;;;11.50;99.90;;;;;;5061365;28;20418;-54
2024/01/24 05:37:12;;;;;;;;;;;11.50;99.90;;;;;;5047272;28;19921;-54
2024/01/24 05:39:38;;;;;;;;;;;11.50;99.90;;;;;;5044333;28;19913;-56
2024/01/24 05:42:03;;;;;;;;;;;11.50;99.90;;;;;;5041413;28;20308;-59
2024/01/24 05:44:29;;;;;;;;;;;11.60;99.90;;;;;;5053244;28;20018;-59
2024/01/24 05:46:54;;;;;;;;;;;11.60;99.90;;;;;;5037747;28;20047;-58
2024/01/24 05:49:20;;;;;;;;;;;11.60;99.90;;;;;;5061573;28;19916;-53
2024/01/24 05:51:45;;;;;;;;;;;11.70;99.90;;;;;;5062520;28;20003;-54
2024/01/24 05:54:11;;;;;;;;;;;11.70;99.90;;;;;;5052017;28;19925;-56
2024/01/24 05:56:38;;;;;;;;;;;11.80;99.90;;;;;;5040845;28;19914;-55
2024/01/24 05:59:03;;;;;;;;;;;11.80;99.90;;;;;;5056004;28;19966;-59
2024/01/24 06:01:29;;;;;;;;;;;11.70;99.90;;;;;;5048847;28;20034;-57
2024/01/24 06:03:54;;;;;;;;;;;11.60;99.90;;;;;;5058750;28;19928;-56
2024/01/24 06:06:20;;;;;;;;;;;11.40;99.90;;;;;;5064077;28;19952;-55
2024/01/24 06:08:45;;;;;;;;;;;11.40;99.90;;;;;;5065140;28;19916;-54
2024/01/24 06:11:14;;;;;;;;;;;11.30;99.90;;;;;;5065264;28;19913;-56
2024/01/24 06:13:40;;;;;;;;;;;11.20;99.90;;;;;;5050654;28;20365;-54
2024/01/24 06:16:05;;;;;;;;;;;11.20;99.90;;;;;;5071010;28;20015;-56
2024/01/24 06:18:31;;;;;;;;;;;11.20;99.90;;;;;;5073519;28;20330;-59
2024/01/24 06:20:56;;;;;;;;;;;11.20;99.90;;;;;;5073285;28;20071;-57
2024/01/24 06:23:21;;;;;;;;;;;11.30;99.90;;;;;;5052653;28;19944;-53
2024/01/24 06:25:47;;;;;;;;;;;11.20;99.90;;;;;;5068532;28;19913;-57
2024/01/24 06:28:13;;;;;;;;;;;11.30;99.90;;;;;;5070461;28;20031;-56
2024/01/24 06:30:38;;;;;;;;;;;11.30;99.90;;;;;;5067700;28;19916;-57
2024/01/24 06:33:04;;;;;;;;;;;11.30;99.90;;;;;;5073192;28;19912;-54
2024/01/24 06:35:31;;;;;;;;;;;11.30;99.90;;;;;;5055891;28;20347;-57
2024/01/24 06:37:56;;;;;;;;;;;11.30;99.90;;;;;;5071993;28;20338;-55
2024/01/24 06:40:22;;;;;;;;;;;11.30;99.90;;;;;;5053691;28;19916;-57
2024/01/24 06:42:47;;;;;;;;;;;11.30;99.90;;;;;;5053853;28;19928;-53
2024/01/24 06:45:13;;;;;;;;;;;11.30;99.90;;;;;;5048973;28;20270;-53
2024/01/24 06:47:38;;;;;;;;;;;11.30;99.90;;;;;;5061875;28;19920;-57
2024/01/24 06:50:07;;;;;;;;;;;11.30;99.90;;;;;;5064508;28;19908;-58
2024/01/24 06:52:32;;;;;;;;;;;11.20;99.90;;;;;;5061960;28;19917;-57
2024/01/24 06:54:58;;;;;;;;;;;11.30;99.90;;;;;;5058675;28;19935;-54
2024/01/24 06:57:23;;;;;;;;;;;11.30;99.90;;;;;;5050679;28;20054;-54
2024/01/24 06:59:49;;;;;;;;;;;11.30;99.90;;;;;;5053532;28;19917;-56
2024/01/24 07:02:14;;;;;;;;;;;11.20;99.90;;;;;;5057529;28;19920;-57
2024/01/24 07:04:40;;;;;;;;;;;11.20;99.90;;;;;;5040914;28;19920;-56
2024/01/24 07:07:05;;;;;;;;;;;11.20;99.90;;;;;;5056414;28;19995;-55
2024/01/24 07:09:31;;;;;;;;;;;11.10;99.90;;;;;;5049263;28;20339;-56
2024/01/24 07:11:56;;;;;;;;;;;11.10;99.90;;;;;;5040940;28;20019;-57
2024/01/24 07:14:22;;;;;;;;;;;11.20;99.90;;;;;;5064860;28;19960;-58
2024/01/24 07:16:48;;;;;;;;;;;11.20;99.90;;;;;;5055772;28;19913;-57
2024/01/24 07:19:14;;;;;;;;;;;11.20;99.90;;;;;;5046751;28;19939;-55
2024/01/24 07:21:40;;;;;;;;;;;11.30;99.90;;;;;;5057636;28;19913;-58
2024/01/24 07:24:05;;;;;;;;;;;11.20;99.90;;;;;;5037579;28;19917;-58
2024/01/24 07:26:30;;;;;;;;;;;11.20;99.90;;;;;;5063075;28;19916;-58
2024/01/24 07:28:56;;;;;;;;;;;11.20;99.90;;;;;;5062825;28;19916;-56
2024/01/24 07:31:21;;;;;;;;;;;11.20;99.90;;;;;;5071525;28;19978;-57
2024/01/24 07:33:48;;;;;;;;;;;11.20;99.90;;;;;;5054667;28;20312;-57
2024/01/24 07:36:13;;;;;;;;;;;11.10;99.90;;;;;;5051213;28;19916;-57
2024/01/24 07:38:39;;;;;;;;;;;11.10;99.90;;;;;;5057346;28;19912;-57
2024/01/24 07:41:05;;;;;;;;;;;11.10;99.90;;;;;;5061434;28;19999;-58
2024/01/24 07:43:32;;;;;;;;;;;11.00;99.90;;;;;;5056305;28;19923;-59
2024/01/24 07:45:58;;;;;;;;;;;11.00;99.90;;;;;;5045218;28;20024;-61
2024/01/24 07:48:24;;;;;;;;;;;11.10;99.90;;;;;;5059136;28;20414;-59
2024/01/24 07:50:49;;;;;;;;;;;11.10;99.90;;;;;;5043598;28;19992;-54
2024/01/24 07:53:15;;;;;;;;;;;11.00;99.90;;;;;;5050217;28;20007;-55
2024/01/24 07:55:40;;;;;;;;;;;11.00;99.90;;;;;;5056463;28;19916;-56
2024/01/24 07:58:06;;;;;;;;;;;11.00;99.90;;;;;;5064075;28;20399;-57
2024/01/24 08:00:32;;;;;;;;;;;11.00;99.90;;;;;;5065138;28;19920;-53
2024/01/24 08:03:00;;;;;;;;;;;11.00;99.90;;;;;;5053598;28;19921;-56
2024/01/24 08:05:29;;;;;;;;;;;10.90;99.90;;;;;;5038329;28;19955;-56
2024/01/24 08:07:55;;;;;;;;;;;11.00;99.90;;;;;;5038585;28;19960;-55
2024/01/24 08:10:20;;;;;;;;;;;11.00;99.90;;;;;;5042169;28;19929;-56
2024/01/24 08:12:46;;;;;;;;;;;10.90;99.90;;;;;;5061466;28;19916;-55
2024/01/24 08:15:12;;;;;;;;;;;10.90;99.90;;;;;;5066590;28;19951;-54
2024/01/24 08:17:37;;;;;;;;;;;10.90;99.90;;;;;;5061120;28;20048;-58
2024/01/24 08:20:04;;;;;;;;;;;10.80;99.90;;;;;;5067133;28;20440;-53
2024/01/24 08:22:30;;;;;;;;;;;10.80;99.90;;;;;;5029330;28;19954;-56
2024/01/24 08:24:56;;;;;;;;;;;10.80;99.90;;;;;;5055108;28;19999;-55
2024/01/24 08:27:21;;;;;;;;;;;10.80;99.90;;;;;;5058155;28;19950;-56
2024/01/24 08:29:47;;;;;;;;;;;10.80;99.90;;;;;;5035001;28;19917;-57
2024/01/24 08:32:12;;;;;;;;;;;10.90;99.90;;;;;;5051577;28;19924;-55
2024/01/24 08:34:38;;;;;;;;;;;10.80;99.90;;;;;;5041748;28;19956;-56
2024/01/24 08:37:04;;;;;;;;;;;10.80;99.90;;;;;;5040283;28;20039;-55
2024/01/24 08:39:30;;;;;;;;;;;10.90;99.90;;;;;;5060434;28;20011;-52
2024/01/24 08:41:55;;;;;;;;;;;10.90;99.90;;;;;;5038532;28;19936;-57
2024/01/24 08:44:21;;;;;;;;;;;10.90;99.90;;;;;;5062983;28;19948;-54
2024/01/24 08:46:48;;;;;;;;;;;11.00;99.90;;;;;;5044835;28;19947;-56
2024/01/24 08:49:14;;;;;;;;;;;11.00;99.90;;;;;;5033192;28;19914;-56
2024/01/24 08:51:39;;;;;;;;;;;10.90;99.90;;;;;;5055931;28;20376;-55
2024/01/24 08:54:05;;;;;;;;;;;10.90;99.90;;;;;;5053258;28;19955;-57
2024/01/24 08:56:30;;;;;;;;;;;10.80;99.90;;;;;;5068959;28;19957;-54
2024/01/24 08:58:56;;;;;;;;;;;10.70;99.90;;;;;;5060918;28;19976;-55
2024/01/24 09:01:21;;;;;;;;;;;10.70;99.90;;;;;;5062589;28;20369;-57
2024/01/24 09:03:49;;;;;;;;;;;10.70;99.90;;;;;;5044772;28;19923;-55
2024/01/24 09:06:15;;;;;;;;;;;10.80;99.90;;;;;;5046052;28;19931;-56
2024/01/24 09:08:43;;;;;;;;;;;10.90;99.90;;;;;;5046207;28;19913;-54
2024/01/24 09:11:08;;;;;;;;;;;10.90;99.90;;;;;;5055846;28;19917;-55
2024/01/24 09:13:34;;;;;;;;;;;10.90;99.90;;;;;;5057776;28;19919;-54
2024/01/24 09:16:00;;;;;;;;;;;10.90;99.90;;;;;;5039840;28;19948;-56
2024/01/24 09:18:25;;;;;;;;;;;11.00;99.90;;;;;;5054122;28;19981;-53
2024/01/24 09:20:51;;;;;;;;;;;11.10;99.90;;;;;;5069277;28;19920;-55
2024/01/24 09:23:16;;;;;;;;;;;11.10;99.90;;;;;;5033076;28;20376;-55
2024/01/24 09:25:42;;;;;;;;;;;11.20;99.90;;;;;;5041632;28;19949;-50
2024/01/24 09:28:09;;;;;;;;;;;11.30;99.90;;;;;;5042104;28;19960;-53
2024/01/24 09:30:35;;;;;;;;;;;11.40;99.90;;;;;;5045309;28;19916;-56
2024/01/24 09:33:00;;;;;;;;;;;11.60;99.90;;;;;;5043697;28;19970;-53
2024/01/24 09:35:26;;;;;;;;;;;11.70;99.90;;;;;;5043509;28;19936;-56
2024/01/24 09:37:51;;;;;;;;;;;11.60;99.90;;;;;;5042907;28;19955;-54
2024/01/24 09:40:17;;;;;;;;;;;11.40;99.90;;;;;;5044035;28;20416;-56
2024/01/24 09:42:43;;;;;;;;;;;11.30;99.90;;;;;;5046633;28;19952;-53
2024/01/24 09:45:11;;;;;;;;;;;11.40;99.90;;;;;;5048296;28;20249;-53
2024/01/24 09:47:37;;;;;;;;;;;11.50;99.90;;;;;;5044877;28;20503;-55
2024/01/24 09:50:04;;;;;;;;;;;11.70;99.90;;;;;;5049362;28;20016;-56
2024/01/24 09:52:32;;;;;;;;;;;11.80;99.90;;;;;;5043161;28;19924;-54
2024/01/24 09:54:59;;;;;;;;;;;11.80;99.90;;;;;;5028607;28;19991;-54
2024/01/24 09:57:26;;;;;;;;;;;12.00;99.90;;;;;;5044754;28;19939;-53
2024/01/24 09:59:51;;;;;;;;;;;12.00;99.90;;;;;;5037227;28;19921;-57
2024/01/24 10:02:17;;;;;;;;;;;12.00;99.90;;;;;;5045269;28;20296;-52
2024/01/24 10:04:43;;;;;;;;;;;12.20;99.90;;;;;;5043486;28;20392;-53
2024/01/24 10:07:09;;;;;;;;;;;12.30;99.90;;;;;;5054447;28;19916;-56
2024/01/24 10:09:34;;;;;;;;;;;12.60;99.90;;;;;;5044731;28;19917;-53
2024/01/24 10:12:00;;;;;;;;;;;12.80;99.90;;;;;;5066482;28;19977;-56
2024/01/24 10:14:26;;;;;;;;;;;12.80;99.90;;;;;;5039161;28;19963;-53
2024/01/24 10:16:51;;;;;;;;;;;12.70;99.90;;;;;;5063914;28;19923;-57
2024/01/24 10:19:21;;;;;;;;;;;12.60;99.90;;;;;;5052223;28;19924;-52
2024/01/24 10:21:47;;;;;;;;;;;12.50;99.90;;;;;;5036707;28;20377;-55
2024/01/24 10:24:13;;;;;;;;;;;12.50;99.90;;;;;;5047659;28;19921;-57
2024/01/24 10:26:38;;;;;;;;;;;12.20;99.90;;;;;;5042332;28;20317;-52
2024/01/24 10:29:05;;;;;;;;;;;11.90;99.90;;;;;;5028357;28;20008;-56
2024/01/24 10:31:31;;;;;;;;;;;11.60;99.90;;;;;;5033433;28;19915;-55
2024/01/24 10:33:57;;;;;;;;;;;11.10;99.90;;;;;;5032375;28;20686;-56
2024/01/24 10:36:23;;;;;;;;;;;10.90;99.90;;;;;;5035978;28;19924;-55
2024/01/24 10:38:53;;;;;;;;;;;10.50;99.90;;;;;;5045000;28;19917;-56
2024/01/24 10:41:19;;;;;;;;;;;10.40;99.90;;;;;;5031623;28;19990;-56
2024/01/24 10:43:50;;;;;;;;;;;10.30;99.90;;;;;;5063071;28;19917;-53
2024/01/24 10:46:15;;;;;;;;;;;10.30;99.90;;;;;;5066752;28;20302;-58
2024/01/24 10:48:41;;;;;;;;;;;10.30;99.90;;;;;;5051971;28;19920;-55
2024/01/24 10:51:07;;;;;;;;;;;10.30;99.90;;;;;;5045260;28;20391;-55
2024/01/24 10:53:34;;;;;;;;;;;10.40;99.90;;;;;;5054037;28;20075;-58
2024/01/24 10:56:01;;;;;;;;;;;10.50;99.90;;;;;;5030545;28;19913;-52
2024/01/24 10:58:28;;;;;;;;;;;10.60;99.90;;;;;;5047180;28;19913;-56
2024/01/24 11:00:53;;;;;;;;;;;10.70;99.90;;;;;;5063798;28;19920;-55
2024/01/24 11:03:19;;;;;;;;;;;10.70;99.90;;;;;;5055151;28;19927;-55
2024/01/24 11:05:49;;;;;;;;;;;10.80;99.90;;;;;;5063054;28;19912;-56
2024/01/24 11:08:24;;;;;;;;;;;11.10;99.90;;;;;;5058444;28;20372;-55
2024/01/24 11:10:51;;;;;;;;;;;11.30;99.90;;;;;;5048303;28;19924;-56
2024/01/24 11:13:20;;;;;;;;;;;11.40;99.90;;;;;;5052768;28;19919;-55
2024/01/24 11:15:46;;;;;;;;;;;11.40;99.90;;;;;;5049592;28;19920;-57
2024/01/24 11:18:21;;;;;;;;;;;11.30;99.90;;;;;;5041635;28;19919;-54
2024/01/24 11:20:49;;;;;;;;;;;11.10;99.90;;;;;;5053057;28;19913;-55
2024/01/24 11:23:38;;;;;;;;;;;11.00;99.90;;;;;;5050257;28;20428;-56
2024/01/24 11:26:04;;;;;;;;;;;11.00;99.90;;;;;;5060100;28;19928;-55
2024/01/24 11:28:30;;;;;;;;;;;11.00;99.90;;;;;;5054788;28;19939;-55
2024/01/24 11:30:55;;;;;;;;;;;11.00;99.90;;;;;;5055446;28;19913;-56
2024/01/24 11:33:21;;;;;;;;;;;11.10;99.90;;;;;;5031356;28;20303;-53
2024/01/24 11:35:47;;;;;;;;;;;11.00;99.90;;;;;;5052806;28;19916;-55
2024/01/24 11:38:26;;;;;;;;;;;11.00;99.90;;;;;;5044173;28;20446;-54
2024/01/24 11:40:52;;;;;;;;;;;11.00;99.90;;;;;;5059502;28;19913;-55
2024/01/24 11:43:24;;;;;;;;;;;11.10;99.90;;;;;;5053035;28;20322;-53
2024/01/24 11:46:06;;;;;;;;;;;11.10;99.90;;;;;;5062319;28;19908;-54
2024/01/24 11:48:32;;;;;;;;;;;11.30;99.90;;;;;;5052146;28;20051;-56
2024/01/24 11:50:58;;;;;;;;;;;11.50;99.90;;;;;;5059301;28;20330;-53
2024/01/24 11:53:24;;;;;;;;;;;11.80;99.90;;;;;;5029759;28;19917;-57
2024/01/24 11:55:59;;;;;;;;;;;11.80;99.90;;;;;;5046922;28;19909;-58
2024/01/24 11:58:26;;;;;;;;;;;11.90;99.90;;;;;;5043077;28;20004;-52
2024/01/24 12:00:52;;;;;;;;;;;11.90;99.90;;;;;;5043131;28;19909;-52
2024/01/24 12:03:18;;;;;;;;;;;11.80;99.90;;;;;;5058281;28;20448;-53
2024/01/24 12:05:44;;;;;;;;;;;11.70;99.90;;;;;;5017870;28;19928;-55
2024/01/24 12:08:09;;;;;;;;;;;11.80;99.90;;;;;;5063462;28;19913;-56
2024/01/24 12:10:40;;;;;;;;;;;12.00;99.90;;;;;;5047443;28;19917;-57
2024/01/24 12:13:06;;;;;;;;;;;12.30;99.90;;;;;;5037798;28;20347;-56
2024/01/24 12:15:33;;;;;;;;;;;12.20;99.90;;;;;;5029852;28;19917;-58
2024/01/24 12:18:05;;;;;;;;;;;11.90;99.90;;;;;;5047085;28;19959;-54
2024/01/24 12:20:32;;;;;;;;;;;11.80;99.90;;;;;;5030893;28;19955;-53
2024/01/24 12:22:57;;;;;;;;;;;11.60;99.90;;;;;;5030320;28;19916;-56
2024/01/24 12:25:23;;;;;;;;;;;11.50;99.90;;;;;;5045202;28;20433;-56
2024/01/24 12:27:50;;;;;;;;;;;11.40;99.90;;;;;;5070148;28;19912;-56
2024/01/24 12:30:15;;;;;;;;;;;11.40;99.90;;;;;;5057086;28;19970;-53
2024/01/24 12:32:41;;;;;;;;;;;11.30;99.90;;;;;;5038039;28;20197;-57
2024/01/24 12:35:07;;;;;;;;;;;11.30;99.90;;;;;;5047263;28;19920;-56
2024/01/24 12:37:32;;;;;;;;;;;11.30;99.90;;;;;;5045242;28;19917;-54
2024/01/24 12:40:03;;;;;;;;;;;11.30;99.90;;;;;;5046629;28;19913;-54
2024/01/24 12:42:29;;;;;;;;;;;11.30;99.90;;;;;;5065495;28;19933;-56
2024/01/24 12:44:54;;;;;;;;;;;11.20;99.90;;;;;;5065556;28;19927;-54
2024/01/24 12:47:21;;;;;;;;;;;11.10;99.90;;;;;;5069290;28;19920;-55
2024/01/24 12:49:47;;;;;;;;;;;11.20;99.90;;;;;;5064083;28;19927;-55
2024/01/24 12:52:12;;;;;;;;;;;11.10;99.90;;;;;;5054304;28;20011;-53
2024/01/24 12:54:37;;;;;;;;;;;11.20;99.90;;;;;;5057184;28;19920;-58
2024/01/24 12:57:03;;;;;;;;;;;11.40;99.90;;;;;;5044119;28;19921;-57
2024/01/24 12:59:28;;;;;;;;;;;11.50;99.90;;;;;;5061271;28;20050;-57
2024/01/24 13:01:56;;;;;;;;;;;11.50;99.90;;;;;;5046257;28;20012;-57
2024/01/24 13:04:22;;;;;;;;;;;11.40;99.90;;;;;;5049265;28;19921;-54
2024/01/24 13:06:47;;;;;;;;;;;11.50;99.90;;;;;;5048744;28;19920;-56
2024/01/24 13:09:13;;;;;;;;;;;11.50;99.90;;;;;;5032744;28;20049;-56
2024/01/24 13:11:39;;;;;;;;;;;11.40;99.90;;;;;;5036157;28;19917;-55
2024/01/24 13:14:04;;;;;;;;;;;11.40;99.90;;;;;;5038505;28;20272;-53
2024/01/24 13:16:30;;;;;;;;;;;11.60;99.90;;;;;;5061297;28;19917;-56
2024/01/24 13:18:55;;;;;;;;;;;11.70;99.90;;;;;;5052887;28;20314;-54
2024/01/24 13:21:21;;;;;;;;;;;11.70;99.90;;;;;;5052806;28;19916;-58
2024/01/24 13:23:46;;;;;;;;;;;11.70;99.90;;;;;;5060990;28;20625;-55
2024/01/24 13:26:12;;;;;;;;;;;11.60;99.90;;;;;;5059870;28;20410;-56
2024/01/24 13:28:37;;;;;;;;;;;11.60;99.90;;;;;;5050500;28;19917;-56
2024/01/24 13:31:03;;;;;;;;;;;11.50;99.90;;;;;;5038460;28;20277;-57
2024/01/24 13:33:28;;;;;;;;;;;11.40;99.90;;;;;;5061678;28;20368;-54
2024/01/24 13:35:54;;;;;;;;;;;11.40;99.90;;;;;;5051800;28;19970;-56
2024/01/24 13:38:19;;;;;;;;;;;11.40;99.90;;;;;;5054997;28;19920;-57
2024/01/24 13:40:45;;;;;;;;;;;11.40;99.90;;;;;;5029349;28;19936;-57
2024/01/24 13:43:10;;;;;;;;;;;11.40;99.90;;;;;;5032018;28;20384;-53
2024/01/24 13:45:36;;;;;;;;;;;11.40;99.90;;;;;;5056028;28;19917;-57
2024/01/24 13:48:02;;;;;;;;;;;11.40;99.90;;;;;;5042786;28;20003;-54
2024/01/24 13:50:27;;;;;;;;;;;11.40;99.90;;;;;;5053344;28;19916;-55
2024/01/24 13:52:52;;;;;;;;;;;11.50;99.90;;;;;;5045267;28;19968;-54
2024/01/24 13:55:18;;;;;;;;;;;11.40;99.90;;;;;;5048702;28;19971;-55
2024/01/24 13:57:43;;;;;;;;;;;11.40;99.90;;;;;;5055052;28;20003;-56
2024/01/24 14:00:13;;;;;;;;;;;11.40;99.90;;;;;;5034796;28;19913;-54
2024/01/24 14:02:39;;;;;;;;;;;11.50;99.90;;;;;;5045931;28;20403;-56
2024/01/24 14:05:04;;;;;;;;;;;11.60;99.90;;;;;;5034298;28;19923;-56
2024/01/24 14:07:30;;;;;;;;;;;11.50;99.90;;;;;;5040886;28;20275;-54
2024/01/24 14:09:56;;;;;;;;;;;11.50;99.90;;;;;;5048962;28;20360;-56
2024/01/24 14:12:21;;;;;;;;;;;11.40;99.90;;;;;;5035170;28;20292;-53